Time;durP1;ratioP1;P1;durP2;ratioP2;P2;SDS_P1;SDS_P2;PMS_P1;PMS_P2;Temp;Humidity;BMP_temperature;BMP_pressure;BME280_temperature;BME280_humidity;BME280_pressure;Samples;Min_cycle;Max_cycle;Signal;HPM_P1;HPM_P2
2022/08/17 00:01:59;;;;;;;0.65;0.65;;;21.40;99.90;;;;;;4445044;32;20065;-68
2022/08/17 00:04:25;;;;;;;2.75;0.98;;;21.40;99.90;;;;;;4444806;32;20112;-68
2022/08/17 00:06:52;;;;;;;0.68;0.60;;;21.40;99.90;;;;;;4443976;32;20061;-68
2022/08/17 00:09:17;;;;;;;0.70;0.65;;;21.50;99.90;;;;;;4444195;32;20547;-68
2022/08/17 00:11:43;;;;;;;2.95;1.23;;;21.60;99.90;;;;;;4445378;32;20163;-68
2022/08/17 00:14:13;;;;;;;8.20;1.20;;;21.50;99.90;;;;;;4444589;32;20060;-68
2022/08/17 00:16:43;;;;;;;0.50;0.50;;;21.40;99.90;;;;;;4444500;32;20480;-68
2022/08/17 00:19:12;;;;;;;0.80;0.80;;;21.40;99.90;;;;;;4444852;32;20061;-68
2022/08/17 00:21:41;;;;;;;0.82;0.75;;;21.50;99.90;;;;;;4445080;32;20485;-68
2022/08/17 00:24:06;;;;;;;0.80;0.80;;;21.40;99.90;;;;;;4445151;32;20061;-68
2022/08/17 00:26:32;;;;;;;1.00;0.70;;;21.40;99.90;;;;;;4444577;32;20128;-68
2022/08/17 00:28:58;;;;;;;1.27;1.00;;;21.40;99.90;;;;;;4444690;32;20532;-68
2022/08/17 00:31:23;;;;;;;0.57;0.57;;;21.40;99.90;;;;;;4445623;32;20492;-68
2022/08/17 00:33:49;;;;;;;0.60;0.60;;;21.20;99.90;;;;;;4445380;32;20171;-67
2022/08/17 00:36:16;;;;;;;0.45;0.45;;;21.20;99.90;;;;;;4444078;32;20783;-68
2022/08/17 00:38:41;;;;;;;0.40;0.40;;;21.30;99.90;;;;;;4444538;32;20073;-68
2022/08/17 00:41:14;;;;;;;0.75;0.75;;;21.30;99.90;;;;;;4444988;32;20081;-68
2022/08/17 00:43:45;;;;;;;0.50;0.50;;;21.20;99.90;;;;;;4444832;32;20113;-67
2022/08/17 00:46:17;;;;;;;0.50;0.50;;;21.30;99.90;;;;;;4444133;32;20053;-68
2022/08/17 00:48:43;;;;;;;0.45;0.45;;;21.30;99.90;;;;;;4444720;32;20072;-68
2022/08/17 00:51:33;;;;;;;2.75;0.62;;;21.20;99.90;;;;;;4444668;32;20073;-67
2022/08/17 00:54:07;;;;;;;1.42;0.68;;;21.20;99.90;;;;;;4444622;32;20135;-67
2022/08/17 00:56:36;;;;;;;0.73;0.43;;;21.10;99.90;;;;;;4444757;32;20069;-66
2022/08/17 00:59:05;;;;;;;0.52;0.52;;;21.00;99.90;;;;;;4444239;32;20119;-66
2022/08/17 01:01:31;;;;;;;0.45;0.45;;;21.00;99.90;;;;;;4443820;32;20066;-66
2022/08/17 01:03:57;;;;;;;1.00;0.90;;;20.90;99.90;;;;;;4444568;32;20081;-68
2022/08/17 01:06:23;;;;;;;0.80;0.73;;;20.80;99.90;;;;;;4445885;32;20516;-68
2022/08/17 01:08:52;;;;;;;0.40;0.40;;;20.80;99.90;;;;;;4447986;32;20069;-68
2022/08/17 01:11:19;;;;;;;1.75;0.60;;;20.80;99.90;;;;;;4447086;32;20076;-67
2022/08/17 01:13:46;;;;;;;3.70;0.77;;;20.90;99.90;;;;;;4447271;32;20061;-66
2022/08/17 01:16:19;;;;;;;1.75;0.88;;;21.00;99.90;;;;;;4447229;32;20134;-68
2022/08/17 01:18:49;;;;;;;0.40;0.40;;;21.00;99.90;;;;;;4448318;32;20074;-68
2022/08/17 01:21:39;;;;;;;0.57;0.57;;;20.90;99.90;;;;;;4447954;32;20065;-68
2022/08/17 01:24:05;;;;;;;0.70;0.70;;;20.80;99.90;;;;;;4456749;32;20053;-68
2022/08/17 01:26:32;;;;;;;1.05;0.73;;;20.80;99.90;;;;;;4446998;32;20078;-67
2022/08/17 01:28:58;;;;;;;1.30;0.73;;;20.70;99.90;;;;;;4446881;32;20070;-68
2022/08/17 01:31:28;;;;;;;0.60;0.57;;;20.60;99.90;;;;;;4446954;32;20119;-68
2022/08/17 01:33:53;;;;;;;0.65;0.65;;;20.50;99.90;;;;;;4448166;32;20072;-68
2022/08/17 01:36:19;;;;;;;1.48;0.95;;;20.40;99.90;;;;;;4446876;32;20081;-68
2022/08/17 01:38:45;;;;;;;0.40;0.40;;;20.40;99.90;;;;;;4447105;32;20061;-68
2022/08/17 01:41:14;;;;;;;2.42;1.27;;;20.40;99.90;;;;;;4446607;32;20065;-68
2022/08/17 01:43:49;;;;;;;0.62;0.62;;;20.30;99.90;;;;;;4447208;32;20050;-68
2022/08/17 01:46:32;;;;;;;1.08;0.82;;;20.40;99.90;;;;;;4452967;32;20064;-68
2022/08/17 01:48:58;;;;;;;0.82;0.60;;;20.50;99.90;;;;;;4460695;32;20123;-68
2022/08/17 01:51:31;;;;;;;0.70;0.70;;;20.60;99.90;;;;;;4462984;32;20111;-68
2022/08/17 01:53:59;;;;;;;0.57;0.57;;;20.60;99.90;;;;;;4459445;32;20605;-68
2022/08/17 01:56:27;;;;;;;3.03;1.05;;;20.70;99.90;;;;;;4450196;32;20069;-67
2022/08/17 01:58:52;;;;;;;0.50;0.50;;;20.60;99.90;;;;;;4461450;32;20068;-68
2022/08/17 02:01:25;;;;;;;0.40;0.40;;;20.50;99.90;;;;;;4461913;32;20060;-68
2022/08/17 02:03:52;;;;;;;1.00;0.98;;;20.40;99.90;;;;;;4461528;32;20069;-68
2022/08/17 02:06:17;;;;;;;1.02;0.68;;;20.30;99.90;;;;;;4461246;32;20077;-67
2022/08/17 02:08:43;;;;;;;4.78;1.42;;;20.30;99.90;;;;;;4461958;32;20072;-67
2022/08/17 02:11:13;;;;;;;0.30;0.30;;;20.40;99.90;;;;;;4461826;32;20519;-67
2022/08/17 02:13:39;;;;;;;3.10;0.87;;;20.40;99.90;;;;;;4461894;32;20084;-67
2022/08/17 02:16:04;;;;;;;1.00;0.70;;;20.40;99.90;;;;;;4461577;32;20049;-67
2022/08/17 02:18:30;;;;;;;3.15;1.10;;;20.40;99.90;;;;;;4461419;32;20141;-67
2022/08/17 02:20:56;;;;;;;0.88;0.82;;;20.30;99.90;;;;;;4461902;32;20084;-67
2022/08/17 02:23:23;;;;;;;0.85;0.77;;;20.20;99.90;;;;;;4461553;32;20111;-67
2022/08/17 02:25:49;;;;;;;5.32;0.75;;;20.30;99.90;;;;;;4462235;32;20077;-67
2022/08/17 02:28:16;;;;;;;1.00;0.60;;;20.30;99.90;;;;;;4461270;32;20077;-67
2022/08/17 02:30:42;;;;;;;1.40;1.10;;;20.40;99.90;;;;;;4461985;32;20052;-67
2022/08/17 02:33:08;;;;;;;0.50;0.50;;;20.30;99.90;;;;;;4461838;32;20445;-67
2022/08/17 02:35:36;;;;;;;0.65;0.65;;;20.20;99.90;;;;;;4459675;32;20123;-67
2022/08/17 02:38:03;;;;;;;4.65;1.02;;;20.20;99.90;;;;;;4461253;32;20114;-67
2022/08/17 02:40:29;;;;;;;0.50;0.50;;;20.30;99.90;;;;;;4461419;32;20413;-68
2022/08/17 02:42:55;;;;;;;0.47;0.47;;;20.30;99.90;;;;;;4461960;32;20158;-67
2022/08/17 02:45:22;;;;;;;0.60;0.60;;;20.30;99.90;;;;;;4462269;32;20068;-68
2022/08/17 02:47:49;;;;;;;1.67;0.68;;;20.30;99.90;;;;;;4453229;32;20081;-68
2022/08/17 02:50:16;;;;;;;1.42;0.75;;;20.20;99.90;;;;;;4445676;32;20426;-68
2022/08/17 02:52:43;;;;;;;0.88;0.80;;;20.10;99.90;;;;;;4446438;32;20054;-68
2022/08/17 02:55:14;;;;;;;2.95;1.52;;;20.10;99.90;;;;;;4446823;32;20057;-67
2022/08/17 02:57:39;;;;;;;5.15;1.05;;;20.20;99.90;;;;;;4446750;32;20060;-68
2022/08/17 03:00:11;;;;;;;1.45;1.00;;;20.10;99.90;;;;;;4446760;32;20052;-68
2022/08/17 03:02:38;;;;;;;0.43;0.43;;;20.10;99.90;;;;;;4446914;32;20532;-68
2022/08/17 03:05:06;;;;;;;0.95;0.90;;;20.10;99.90;;;;;;4445841;32;20065;-68
2022/08/17 03:07:32;;;;;;;1.25;0.80;;;20.20;99.90;;;;;;4445498;32;20060;-68
2022/08/17 03:09:58;;;;;;;1.42;0.77;;;20.20;99.90;;;;;;4445558;32;20073;-67
2022/08/17 03:12:26;;;;;;;0.60;0.60;;;20.20;99.90;;;;;;4447056;32;20064;-68
2022/08/17 03:14:52;;;;;;;0.90;0.65;;;20.30;99.90;;;;;;4445533;32;20061;-68
2022/08/17 03:17:17;;;;;;;0.85;0.75;;;20.20;99.90;;;;;;4445461;32;20512;-67
2022/08/17 03:19:43;;;;;;;3.58;1.25;;;20.20;99.90;;;;;;4445708;32;20053;-67
2022/08/17 03:22:09;;;;;;;4.43;1.20;;;20.20;99.90;;;;;;4445684;32;20062;-67
2022/08/17 03:24:35;;;;;;;0.60;0.60;;;20.10;99.90;;;;;;4445206;32;20078;-68
2022/08/17 03:27:00;;;;;;;0.52;0.52;;;20.00;99.90;;;;;;4446316;32;20065;-66
2022/08/17 03:29:26;;;;;;;1.95;1.12;;;20.00;99.90;;;;;;4446337;32;20065;-68
2022/08/17 03:31:52;;;;;;;0.68;0.65;;;20.00;99.90;;;;;;4445317;32;20073;-68
2022/08/17 03:34:17;;;;;;;0.73;0.73;;;20.00;99.90;;;;;;4446191;32;20077;-68
2022/08/17 03:36:43;;;;;;;0.80;0.65;;;20.10;99.90;;;;;;4444641;32;20076;-67
2022/08/17 03:39:08;;;;;;;0.70;0.70;;;20.10;99.90;;;;;;4445696;32;20114;-67
2022/08/17 03:41:34;;;;;;;1.52;1.00;;;20.20;99.90;;;;;;4445520;32;20073;-67
2022/08/17 03:44:00;;;;;;;0.80;0.73;;;20.10;99.90;;;;;;4445353;32;20073;-69
2022/08/17 03:56:43;;;;;;;0.68;0.68;;;19.90;99.90;;;;;;4443726;32;20468;-68
2022/08/17 03:57:30;;;;;;;4.78;0.70;;;19.80;99.90;;;;;;4444083;32;20069;-67
2022/08/17 03:59:56;;;;;;;0.65;0.65;;;19.70;99.90;;;;;;4445054;32;20532;-67
2022/08/17 04:02:28;;;;;;;0.55;0.55;;;19.70;99.90;;;;;;4446576;32;20077;-67
2022/08/17 04:04:54;;;;;;;1.65;0.98;;;19.70;99.90;;;;;;4445953;32;20074;-67
2022/08/17 04:07:24;;;;;;;1.50;0.90;;;19.80;99.90;;;;;;4459121;32;20068;-67
2022/08/17 04:09:50;;;;;;;2.22;0.85;;;19.70;99.90;;;;;;4460459;32;20516;-68
2022/08/17 04:12:17;;;;;;;2.58;1.17;;;19.70;99.90;;;;;;4460612;32;20052;-68
2022/08/17 04:14:43;;;;;;;0.82;0.80;;;19.70;99.90;;;;;;4461831;32;20119;-66
2022/08/17 04:17:08;;;;;;;0.90;0.85;;;19.60;99.90;;;;;;4460316;32;20069;-67
2022/08/17 04:19:34;;;;;;;1.27;0.90;;;19.70;99.90;;;;;;4459978;32;20064;-67
2022/08/17 04:22:00;;;;;;;1.85;0.95;;;19.80;99.90;;;;;;4460074;32;20088;-67
2022/08/17 04:24:26;;;;;;;1.08;0.98;;;19.80;99.90;;;;;;4460232;32;20057;-68
2022/08/17 04:26:52;;;;;;;0.50;0.50;;;19.90;99.90;;;;;;4461528;32;20544;-68
2022/08/17 04:29:17;;;;;;;0.80;0.70;;;20.00;99.90;;;;;;4460218;32;20460;-68
2022/08/17 04:31:43;;;;;;;0.90;0.90;;;20.10;99.90;;;;;;4460458;32;20167;-67
2022/08/17 04:34:10;;;;;;;1.95;0.68;;;20.20;99.90;;;;;;4460421;32;20072;-68
2022/08/17 04:36:36;;;;;;;0.50;0.50;;;20.30;99.90;;;;;;4455396;32;20064;-68
2022/08/17 04:39:01;;;;;;;0.62;0.62;;;20.30;99.90;;;;;;4444692;32;20053;-67
2022/08/17 04:42:27;;;;;;;0.88;0.88;;;20.30;99.90;;;;;;4451763;32;20065;-68
2022/08/17 04:44:12;;;;;;;0.85;0.52;;;20.20;99.90;;;;;;4458662;32;20061;-67
2022/08/17 04:46:38;;;;;;;0.77;0.77;;;20.20;99.90;;;;;;4457662;32;20081;-66
2022/08/17 04:49:08;;;;;;;2.65;0.80;;;20.30;99.90;;;;;;4445942;32;20160;-68
2022/08/17 04:51:37;;;;;;;0.60;0.60;;;20.40;99.90;;;;;;4444525;32;20168;-67
2022/08/17 04:54:08;;;;;;;0.65;0.65;;;20.40;99.90;;;;;;4445467;32;20177;-67
2022/08/17 04:56:34;;;;;;;0.43;0.43;;;20.60;99.90;;;;;;4445684;32;20056;-67
2022/08/17 04:59:05;;;;;;;0.95;0.88;;;20.60;99.90;;;;;;4443978;32;20500;-67
2022/08/17 05:01:33;;;;;;;0.70;0.70;;;20.70;99.90;;;;;;4448322;32;20867;-67
2022/08/17 05:04:02;;;;;;;0.60;0.60;;;20.70;99.90;;;;;;4444214;32;20056;-68
2022/08/17 05:06:28;;;;;;;0.75;0.70;;;20.80;99.90;;;;;;4447111;32;20124;-68
2022/08/17 05:08:55;;;;;;;1.77;0.93;;;20.80;99.90;;;;;;4457745;32;20431;-67
2022/08/17 05:11:22;;;;;;;3.15;0.88;;;20.80;99.90;;;;;;4452513;32;20064;-67
2022/08/17 05:13:48;;;;;;;0.80;0.80;;;20.90;99.90;;;;;;4446657;32;20406;-67
2022/08/17 05:16:15;;;;;;;0.85;0.77;;;20.90;99.90;;;;;;4455090;32;20069;-68
2022/08/17 05:18:40;;;;;;;1.10;1.00;;;21.00;99.90;;;;;;4459682;32;20116;-68
2022/08/17 05:21:06;;;;;;;0.68;0.68;;;21.00;99.90;;;;;;4458926;32;20065;-68
2022/08/17 05:23:32;;;;;;;1.30;0.80;;;21.00;99.90;;;;;;4460866;32;20060;-68
2022/08/17 05:25:58;;;;;;;4.28;0.52;;;21.10;99.90;;;;;;4458428;32;20056;-68
2022/08/17 05:28:26;;;;;;;1.45;0.85;;;21.10;99.90;;;;;;4455518;32;20127;-68
2022/08/17 05:30:53;;;;;;;0.93;0.93;;;21.10;99.90;;;;;;4444371;32;20057;-68
2022/08/17 05:33:22;;;;;;;0.60;0.60;;;21.10;99.90;;;;;;4446325;32;20398;-69
2022/08/17 05:35:52;;;;;;;0.70;0.70;;;21.20;99.90;;;;;;4443626;32;20069;-68
2022/08/17 05:38:19;;;;;;;0.88;0.65;;;21.30;99.90;;;;;;4453973;32;20068;-68
2022/08/17 05:40:46;;;;;;;0.68;0.68;;;21.40;99.90;;;;;;4459753;32;20126;-68
2022/08/17 05:43:16;;;;;;;1.75;0.90;;;21.50;99.90;;;;;;4456747;32;20061;-69
2022/08/17 05:45:54;;;;;;;1.30;1.20;;;21.70;99.90;;;;;;4455871;32;20068;-67
2022/08/17 05:48:20;;;;;;;0.85;0.70;;;21.80;99.90;;;;;;4441909;32;20081;-67
2022/08/17 05:51:07;;;;;;;3.30;0.85;;;21.80;99.90;;;;;;4445123;32;20088;-68
2022/08/17 05:53:45;;;;;;;1.70;1.08;;;22.00;99.90;;;;;;4444166;32;20074;-68
2022/08/17 05:56:19;;;;;;;0.88;0.77;;;22.10;99.90;;;;;;4447366;32;20076;-68
2022/08/17 05:58:57;;;;;;;0.70;0.70;;;22.10;99.90;;;;;;4459667;32;20077;-68
2022/08/17 06:01:39;;;;;;;0.62;0.52;;;22.20;99.90;;;;;;4461013;32;20114;-68
2022/08/17 06:04:24;;;;;;;0.80;0.80;;;22.30;99.90;;;;;;4454804;32;20500;-68
2022/08/17 06:07:15;;;;;;;2.03;0.60;;;22.40;99.90;;;;;;4461836;32;20064;-68
2022/08/17 06:09:54;;;;;;;0.77;0.70;;;22.50;99.90;;;;;;4458616;32;20119;-68
2022/08/17 06:12:53;;;;;;;0.90;0.90;;;22.60;99.90;;;;;;4458421;32;20556;-68
2022/08/17 06:15:58;;;;;;;1.90;0.98;;;22.70;99.90;;;;;;4452157;32;20068;-70
2022/08/17 06:18:30;;;;;;;1.52;1.20;;;22.80;99.90;;;;;;4446399;32;20085;-67
2022/08/17 06:21:00;;;;;;;0.68;0.68;;;23.00;99.90;;;;;;4451831;32;20084;-67
2022/08/17 06:23:37;;;;;;;3.05;1.02;;;23.00;99.90;;;;;;4450166;32;20545;-68
2022/08/17 06:26:12;;;;;;;1.05;0.62;;;23.10;99.90;;;;;;4456427;32;20504;-69
2022/08/17 06:28:46;;;;;;;5.43;1.05;;;23.20;99.90;;;;;;4449448;32;20065;-69
2022/08/17 06:31:30;;;;;;;1.02;0.73;;;23.30;99.90;;;;;;4455280;32;20088;-69
2022/08/17 06:33:59;;;;;;;3.72;0.70;;;23.40;99.90;;;;;;4457543;32;20069;-69
2022/08/17 06:36:48;;;;;;;0.77;0.65;;;23.40;99.90;;;;;;4456712;32;20190;-70
2022/08/17 06:39:28;;;;;;;0.98;0.57;;;23.50;99.90;;;;;;4445945;32;20061;-69
2022/08/17 06:42:20;;;;;;;0.43;0.43;;;23.60;99.90;;;;;;4452269;32;20136;-69
2022/08/17 06:44:55;;;;;;;0.60;0.60;;;23.70;99.90;;;;;;4443916;32;20504;-69
2022/08/17 06:47:32;;;;;;;0.50;0.50;;;23.80;99.90;;;;;;4444284;32;20081;-69
2022/08/17 06:50:26;;;;;;;0.68;0.55;;;23.90;99.90;;;;;;4445317;32;20181;-69
2022/08/17 06:52:58;;;;;;;0.80;0.80;;;24.10;99.90;;;;;;4446332;32;20410;-69
2022/08/17 06:55:43;;;;;;;1.25;0.50;;;24.20;99.90;;;;;;4454454;32;20068;-69
2022/08/17 06:58:10;;;;;;;0.50;0.50;;;24.30;99.90;;;;;;4454560;32;20122;-69
2022/08/17 07:00:40;;;;;;;0.55;0.55;;;24.30;99.90;;;;;;4450016;32;20070;-69
2022/08/17 07:03:12;;;;;;;0.55;0.55;;;24.40;99.90;;;;;;4441400;32;20105;-70
2022/08/17 07:05:46;;;;;;;0.80;0.73;;;24.50;99.90;;;;;;4446852;32;20080;-70
2022/08/17 07:08:33;;;;;;;0.57;0.57;;;24.60;99.90;;;;;;4444504;32;20129;-69
2022/08/17 07:11:07;;;;;;;3.40;0.80;;;24.70;99.90;;;;;;4439633;32;20069;-69
2022/08/17 07:13:43;;;;;;;1.55;0.62;;;24.80;99.90;;;;;;4447831;32;20072;-69
2022/08/17 07:16:22;;;;;;;2.62;1.25;;;24.90;99.90;;;;;;4448449;32;20119;-68
2022/08/17 07:18:50;;;;;;;0.40;0.40;;;24.90;99.90;;;;;;4446299;32;20088;-68
2022/08/17 07:21:25;;;;;;;0.30;0.30;;;24.90;99.90;;;;;;4448453;32;20415;-68
2022/08/17 07:24:10;;;;;;;0.50;0.50;;;25.00;99.90;;;;;;4447212;32;20096;-68
2022/08/17 07:26:37;;;;;;;1.70;1.23;;;25.10;99.90;;;;;;4448377;32;20497;-67
2022/08/17 07:29:04;;;;;;;1.02;0.45;;;25.10;99.90;;;;;;4449978;32;20516;-68
2022/08/17 07:31:32;;;;;;;0.50;0.50;;;25.20;99.90;;;;;;4446149;32;20072;-68
2022/08/17 07:34:05;;;;;;;0.30;0.30;;;25.40;99.90;;;;;;4444994;32;20073;-68
2022/08/17 07:36:32;;;;;;;0.52;0.37;;;25.50;99.90;;;;;;4445372;32;20057;-68
2022/08/17 07:39:00;;;;;;;9.73;1.08;;;25.60;99.90;;;;;;4456359;32;20682;-68
2022/08/17 07:41:27;;;;;;;0.40;0.40;;;25.70;99.90;;;;;;4445983;32;20049;-68
2022/08/17 07:43:54;;;;;;;2.50;0.73;;;25.80;99.90;;;;;;4453013;32;20532;-68
2022/08/17 07:48:20;;;;;;;0.57;0.57;;;25.90;99.90;;;;;;4446451;32;20077;-68
2022/08/17 07:49:37;;;;;;;3.60;1.42;;;26.00;99.90;;;;;;4442705;32;20073;-68
2022/08/17 07:52:07;;;;;;;0.88;0.57;;;26.10;99.90;;;;;;4444327;32;20073;-70
2022/08/17 07:54:37;;;;;;;0.57;0.57;;;26.20;99.90;;;;;;4451099;32;20418;-69
2022/08/17 07:57:12;;;;;;;0.30;0.30;;;26.30;99.90;;;;;;4443538;32;20065;-67
2022/08/17 07:59:40;;;;;;;0.20;0.20;;;26.40;99.90;;;;;;4443875;32;20101;-71
2022/08/17 08:02:32;;;;;;;1.23;0.70;;;26.60;99.90;;;;;;4449216;32;20068;-72
2022/08/17 08:05:03;;;;;;;1.08;0.40;;;26.70;99.90;;;;;;4445427;32;20077;-71
2022/08/17 08:07:53;;;;;;;0.40;0.40;;;26.80;99.90;;;;;;4447702;32;20056;-72
2022/08/17 08:10:38;;;;;;;1.73;0.68;;;26.90;99.90;;;;;;4445207;32;20160;-72
2022/08/17 08:13:24;;;;;;;0.47;0.40;;;26.90;99.90;;;;;;4447879;32;20443;-72
2022/08/17 08:15:52;;;;;;;2.83;0.82;;;27.00;99.90;;;;;;4451168;32;20089;-72
2022/08/17 08:18:25;;;;;;;0.35;0.35;;;27.00;99.90;;;;;;4449688;32;20076;-72
2022/08/17 08:20:58;;;;;;;0.93;0.50;;;27.10;99.90;;;;;;4451587;32;20057;-70
2022/08/17 08:23:42;;;;;;;3.83;1.75;;;27.10;99.50;;;;;;4453949;32;20127;-70
2022/08/17 08:26:14;;;;;;;0.37;0.37;;;27.20;99.50;;;;;;4449697;32;20075;-70
2022/08/17 08:29:07;;;;;;;0.37;0.37;;;27.30;99.60;;;;;;4453853;32;20372;-70
2022/08/17 08:31:55;;;;;;;1.83;0.65;;;27.40;99.20;;;;;;4440248;32;87915;-70
2022/08/17 08:34:34;;;;;;;0.30;0.30;;;27.40;98.40;;;;;;4444739;32;20086;-70
2022/08/17 08:37:26;;;;;;;0.20;0.20;;;27.50;98.80;;;;;;4450528;32;20472;-70
2022/08/17 08:39:56;;;;;;;0.52;0.52;;;27.60;98.40;;;;;;4445569;32;20136;-69
2022/08/17 08:42:42;;;;;;;0.20;0.20;;;27.60;97.20;;;;;;4455814;32;20081;-69
2022/08/17 08:45:17;;;;;;;0.30;0.22;;;27.70;98.00;;;;;;4450338;32;20093;-69
2022/08/17 08:48:13;;;;;;;2.42;0.65;;;27.80;97.80;;;;;;4446584;32;20065;-69
2022/08/17 08:50:59;;;;;;;0.52;0.40;;;27.90;97.20;;;;;;4445583;32;20089;-70
2022/08/17 08:53:59;;;;;;;1.30;0.45;;;28.00;98.00;;;;;;4446430;32;20081;-69
2022/08/17 08:56:37;;;;;;;0.62;0.37;;;28.10;97.40;;;;;;4450386;32;20084;-69
2022/08/17 08:59:28;;;;;;;0.30;0.30;;;28.20;96.00;;;;;;4444395;32;20072;-69
2022/08/17 09:02:33;;;;;;;0.55;0.45;;;28.30;97.10;;;;;;4445184;32;20089;-69
2022/08/17 09:05:38;;;;;;;0.20;0.20;;;28.40;94.80;;;;;;4436771;32;20079;-69
2022/08/17 09:08:14;;;;;;;0.30;0.30;;;28.50;94.60;;;;;;4444714;32;20065;-69
2022/08/17 09:11:03;;;;;;;1.08;0.80;;;28.50;94.30;;;;;;4449814;32;20068;-69
2022/08/17 09:13:38;;;;;;;0.20;0.20;;;28.70;94.10;;;;;;4440655;32;20105;-69
2022/08/17 09:16:19;;;;;;;0.35;0.35;;;28.80;93.40;;;;;;4445577;32;20057;-68
2022/08/17 09:18:52;;;;;;;0.37;0.37;;;28.90;92.80;;;;;;4445245;32;20072;-69
2022/08/17 09:21:27;;;;;;;1.12;0.40;;;29.00;92.50;;;;;;4446399;32;20069;-70
2022/08/17 09:24:03;;;;;;;2.28;1.27;;;29.20;92.70;;;;;;4449844;32;20073;-70
2022/08/17 09:26:38;;;;;;;0.15;0.15;;;29.30;93.20;;;;;;4448634;32;20124;-70
2022/08/17 09:29:09;;;;;;;0.25;0.25;;;29.40;92.70;;;;;;4444908;32;20523;-69
2022/08/17 09:31:48;;;;;;;0.62;0.57;;;29.60;93.40;;;;;;4447411;32;20552;-68
2022/08/17 09:34:18;;;;;;;0.10;0.05;;;29.70;92.50;;;;;;4444661;32;20073;-69
2022/08/17 09:36:54;;;;;;;0.20;0.17;;;29.80;90.90;;;;;;4447754;32;20296;-69
2022/08/17 09:39:29;;;;;;;0.20;0.20;;;29.90;91.30;;;;;;4453679;32;20127;-69
2022/08/17 09:42:03;;;;;;;3.72;0.82;;;30.00;90.30;;;;;;4443401;32;20072;-70
2022/08/17 09:44:38;;;;;;;0.20;0.20;;;30.00;90.20;;;;;;4428550;32;21063;-70
2022/08/17 09:47:16;;;;;;;1.50;0.50;;;30.00;90.30;;;;;;4452670;32;20076;-71
2022/08/17 09:49:47;;;;;;;0.37;0.37;;;30.20;91.70;;;;;;4447656;32;20115;-70
2022/08/17 09:52:20;;;;;;;0.20;0.20;;;30.40;90.30;;;;;;4454686;32;20123;-70
2022/08/17 09:54:49;;;;;;;0.10;0.10;;;30.40;88.90;;;;;;4449069;32;20097;-69
2022/08/17 09:57:23;;;;;;;0.13;0.10;;;30.50;88.00;;;;;;4444212;32;20073;-68
2022/08/17 09:59:57;;;;;;;0.32;0.32;;;30.50;89.20;;;;;;4449105;32;20092;-68
2022/08/17 10:02:53;;;;;;;0.45;0.30;;;30.80;89.70;;;;;;4450612;32;20092;-69
2022/08/17 10:05:45;;;;;;;0.90;0.62;;;31.00;87.10;;;;;;4448287;32;20064;-67
2022/08/17 10:08:51;;;;;;;0.30;0.30;;;31.10;86.80;;;;;;4452992;32;20064;-68
2022/08/17 10:12:41;;;;;;;0.20;0.20;;;31.30;85.20;;;;;;4446903;32;20097;-69
2022/08/17 10:14:34;;;;;;;0.03;0.03;;;31.30;84.10;;;;;;4435209;32;20080;-68
2022/08/17 10:17:08;;;;;;;0.82;0.37;;;31.30;85.60;;;;;;4437442;32;20196;-69
2022/08/17 10:19:40;;;;;;;2.00;0.55;;;31.30;84.90;;;;;;4447548;32;20064;-68
2022/08/17 10:26:13;;;;;;;0.17;0.17;;;31.20;87.20;;;;;;4449438;32;20089;-68
2022/08/17 10:28:00;;;;;;;3.03;0.93;;;31.40;84.80;;;;;;4442127;32;20600;-69
2022/08/17 10:30:29;;;;;;;0.10;0.10;;;31.40;82.20;;;;;;4436881;32;20462;-68
2022/08/17 10:33:13;;;;;;;0.17;0.17;;;31.60;82.50;;;;;;4444890;32;20109;-69
2022/08/17 10:36:02;;;;;;;0.25;0.25;;;31.80;82.30;;;;;;4442268;32;20084;-69
2022/08/17 10:38:35;;;;;;;0.32;0.32;;;32.00;81.70;;;;;;4439587;32;20105;-69
2022/08/17 10:41:25;;;;;;;3.35;1.17;;;32.10;82.90;;;;;;4447357;32;20072;-68
2022/08/17 10:44:01;;;;;;;0.70;0.70;;;32.10;79.20;;;;;;4452302;32;20088;-69
2022/08/17 10:46:45;;;;;;;0.68;0.43;;;32.10;81.20;;;;;;4449201;32;20226;-69
2022/08/17 10:49:22;;;;;;;0.45;0.45;;;32.20;82.90;;;;;;4452112;32;20539;-69
2022/08/17 10:51:53;;;;;;;0.50;0.50;;;32.10;79.00;;;;;;4448974;32;20061;-69
2022/08/17 10:54:37;;;;;;;2.55;0.90;;;32.20;80.50;;;;;;4441934;32;20085;-69
2022/08/17 10:57:31;;;;;;;0.10;0.10;;;32.50;80.30;;;;;;4449337;32;20065;-68
2022/08/17 10:59:59;;;;;;;2.70;0.50;;;32.90;77.80;;;;;;4447453;32;20064;-69
2022/08/17 11:02:48;;;;;;;0.40;0.40;;;33.00;76.20;;;;;;4451264;32;20060;-69
2022/08/17 11:05:27;;;;;;;5.82;0.55;;;33.10;77.20;;;;;;4442696;32;20083;-69
2022/08/17 11:08:21;;;;;;;0.20;0.20;;;33.10;75.30;;;;;;4446532;32;20105;-69
2022/08/17 11:11:15;;;;;;;0.30;0.30;;;33.30;75.90;;;;;;4444406;32;20105;-69
2022/08/17 11:14:10;;;;;;;0.17;0.17;;;33.30;75.60;;;;;;4443452;32;20057;-69
2022/08/17 11:17:10;;;;;;;0.13;0.13;;;33.10;76.00;;;;;;4441132;32;20061;-69
2022/08/17 11:19:56;;;;;;;0.40;0.40;;;33.00;73.90;;;;;;4447334;32;20513;-69
2022/08/17 11:22:45;;;;;;;0.10;0.10;;;32.80;73.80;;;;;;4451940;32;20100;-69
2022/08/17 11:25:16;;;;;;;11.68;0.80;;;32.90;77.70;;;;;;4455008;32;20053;-69
2022/08/17 11:27:42;;;;;;;4.68;0.82;;;32.70;75.20;;;;;;4446677;32;20065;-69
2022/08/17 11:30:31;;;;;;;0.40;0.40;;;32.90;76.10;;;;;;4447479;32;20081;-70
2022/08/17 11:32:57;;;;;;;1.05;0.65;;;33.30;76.30;;;;;;4438005;32;20121;-69
2022/08/17 11:35:29;;;;;;;1.58;0.20;;;33.70;73.40;;;;;;4446813;32;20551;-69
2022/08/17 11:38:35;;;;;;;0.20;0.20;;;34.20;72.30;;;;;;4447484;32;21122;-69
2022/08/17 11:41:31;;;;;;;0.20;0.20;;;34.30;72.50;;;;;;4446315;32;20398;-69
2022/08/17 11:44:24;;;;;;;0.10;0.10;;;34.40;70.30;;;;;;4445746;32;20065;-69
2022/08/17 11:51:35;;;;;;;1.85;0.80;;;34.50;69.10;;;;;;4448572;32;20093;-69
2022/08/17 11:53:26;;;;;;;0.35;0.35;;;34.70;67.20;;;;;;4448035;32;20097;-69
2022/08/17 11:55:57;;;;;;;0.10;0.10;;;34.70;68.30;;;;;;4444660;32;20060;-69
2022/08/17 11:58:36;;;;;;;0.40;0.40;;;34.40;68.10;;;;;;4448588;32;20065;-68
2022/08/17 12:01:04;;;;;;;0.30;0.30;;;34.20;67.00;;;;;;4443021;32;20082;-68
2022/08/17 12:03:32;;;;;;;0.35;0.30;;;34.50;66.70;;;;;;4447300;32;20104;-68
2022/08/17 12:06:23;;;;;;;3.20;1.37;;;35.10;67.70;;;;;;4455925;32;20088;-68
2022/08/17 12:08:53;;;;;;;0.10;0.10;;;35.70;66.10;;;;;;4456939;32;20077;-69
2022/08/17 12:11:29;;;;;;;1.52;0.68;;;36.10;62.70;;;;;;4447622;32;20065;-69
2022/08/17 12:13:57;;;;;;;0.30;0.30;;;36.60;63.50;;;;;;4445011;32;20081;-69
2022/08/17 12:16:23;;;;;;;0.43;0.40;;;36.90;62.10;;;;;;4444629;32;20330;-69
2022/08/17 12:18:57;;;;;;;0.20;0.20;;;37.00;64.70;;;;;;4449102;32;20060;-69
2022/08/17 12:21:48;;;;;;;0.65;0.50;;;37.00;62.10;;;;;;4442738;32;20065;-69
2022/08/17 12:24:28;;;;;;;0.20;0.20;;;36.00;63.90;;;;;;4454925;32;20089;-69
2022/08/17 12:26:57;;;;;;;0.85;0.50;;;34.80;65.70;;;;;;4453147;32;20076;-69
2022/08/17 12:29:23;;;;;;;0.32;0.32;;;34.20;67.50;;;;;;4444383;32;20081;-69
2022/08/17 12:31:51;;;;;;;0.20;0.20;;;33.70;67.20;;;;;;4450737;32;20583;-69
2022/08/17 12:34:21;;;;;;;0.17;0.17;;;34.00;67.20;;;;;;4448576;32;20085;-68
2022/08/17 12:36:49;;;;;;;;;;;34.80;65.40;;;;;;4446140;32;20098;-68
2022/08/17 12:39:20;;;;;;;0.30;0.30;;;34.90;64.20;;;;;;4449738;32;21374;-68
2022/08/17 12:41:48;;;;;;;0.30;0.30;;;34.80;65.80;;;;;;4443467;32;20105;-68
2022/08/17 12:44:20;;;;;;;0.17;0.17;;;34.40;65.90;;;;;;4453593;32;20089;-68
2022/08/17 12:46:49;;;;;;;0.20;0.20;;;34.10;67.70;;;;;;4456074;32;20068;-69
2022/08/17 12:49:22;;;;;;;0.60;0.45;;;34.30;65.30;;;;;;4454981;32;20064;-68
2022/08/17 12:51:50;;;;;;;0.30;0.30;;;34.10;65.70;;;;;;4445492;32;20061;-68
2022/08/17 12:54:26;;;;;;;1.10;0.55;;;33.80;67.20;;;;;;4454868;32;20589;-68
2022/08/17 12:56:52;;;;;;;0.47;0.45;;;34.10;68.00;;;;;;4449967;32;20057;-68
2022/08/17 12:59:20;;;;;;;0.30;0.30;;;34.60;66.70;;;;;;4447143;32;20445;-70
2022/08/17 13:01:46;;;;;;;0.37;0.37;;;35.20;66.30;;;;;;4445804;32;20505;-69
2022/08/17 13:04:14;;;;;;;0.20;0.20;;;35.90;63.20;;;;;;4450311;32;20052;-69
2022/08/17 13:06:50;;;;;;;0.80;0.55;;;36.40;61.30;;;;;;4456548;32;20138;-69
2022/08/17 13:09:25;;;;;;;0.50;0.50;;;37.20;59.00;;;;;;4446316;32;20050;-69
2022/08/17 13:11:54;;;;;;;3.08;0.80;;;37.10;58.50;;;;;;4448829;32;20061;-69
2022/08/17 13:14:19;;;;;;;0.20;0.20;;;36.50;59.60;;;;;;4453274;32;20053;-69
2022/08/17 13:16:52;;;;;;;0.25;0.25;;;36.00;61.10;;;;;;4449421;32;20073;-69
2022/08/17 13:19:20;;;;;;;25.42;1.30;;;35.50;59.60;;;;;;4452773;32;20097;-69
2022/08/17 13:21:50;;;;;;;4.20;1.37;;;35.00;63.40;;;;;;4454454;32;20065;-69
2022/08/17 13:24:19;;;;;;;0.10;0.10;;;34.90;63.70;;;;;;4446130;32;20092;-69
2022/08/17 13:26:49;;;;;;;1.87;0.65;;;35.30;63.60;;;;;;4454778;32;20065;-69
2022/08/17 13:29:37;;;;;;;0.70;0.45;;;35.30;61.20;;;;;;4448085;32;20080;-69
2022/08/17 13:32:05;;;;;;;0.20;0.20;;;35.40;61.20;;;;;;4455230;32;20076;-69
2022/08/17 13:34:38;;;;;;;0.20;0.20;;;35.30;61.80;;;;;;4453999;32;20081;-69
2022/08/17 13:37:25;;;;;;;0.40;0.40;;;35.20;64.50;;;;;;4459779;32;20061;-69